sensor_id;sensor_type;location;lat;lon;timestamp;P1;durP1;ratioP1;P2;durP2;ratioP2
46723;SDS011;32463;48.298;11.620;2023-04-16T00:00:14;11.32;;;4.60;;
46723;SDS011;32463;48.298;11.620;2023-04-16T00:02:40;5.75;;;3.90;;
46723;SDS011;32463;48.298;11.620;2023-04-16T00:05:06;8.43;;;3.88;;
46723;SDS011;32463;48.298;11.620;2023-04-16T00:07:33;6.90;;;4.43;;
46723;SDS011;32463;48.298;11.620;2023-04-16T00:10:00;6.47;;;4.47;;
46723;SDS011;32463;48.298;11.620;2023-04-16T00:12:26;7.97;;;5.40;;
46723;SDS011;32463;48.298;11.620;2023-04-16T00:14:52;6.47;;;4.38;;
46723;SDS011;32463;48.298;11.620;2023-04-16T00:17:19;6.57;;;4.63;;
46723;SDS011;32463;48.298;11.620;2023-04-16T00:19:45;6.28;;;4.20;;
46723;SDS011;32463;48.298;11.620;2023-04-16T00:22:12;5.78;;;4.40;;
46723;SDS011;32463;48.298;11.620;2023-04-16T00:24:38;9.32;;;4.57;;
46723;SDS011;32463;48.298;11.620;2023-04-16T00:27:06;7.75;;;4.75;;
46723;SDS011;32463;48.298;11.620;2023-04-16T00:29:33;10.32;;;5.03;;
46723;SDS011;32463;48.298;11.620;2023-04-16T00:32:00;8.02;;;5.45;;
46723;SDS011;32463;48.298;11.620;2023-04-16T00:34:26;10.48;;;5.47;;
46723;SDS011;32463;48.298;11.620;2023-04-16T00:36:52;8.90;;;6.03;;
46723;SDS011;32463;48.298;11.620;2023-04-16T00:39:19;8.25;;;5.40;;
46723;SDS011;32463;48.298;11.620;2023-04-16T00:41:45;10.57;;;5.80;;
46723;SDS011;32463;48.298;11.620;2023-04-16T00:44:13;8.18;;;5.07;;
46723;SDS011;32463;48.298;11.620;2023-04-16T00:46:39;9.85;;;5.93;;
46723;SDS011;32463;48.298;11.620;2023-04-16T00:49:06;12.13;;;6.00;;
46723;SDS011;32463;48.298;11.620;2023-04-16T00:51:34;10.65;;;6.88;;
46723;SDS011;32463;48.298;11.620;2023-04-16T00:54:01;10.32;;;6.82;;
46723;SDS011;32463;48.298;11.620;2023-04-16T00:56:28;11.13;;;7.05;;
46723;SDS011;32463;48.298;11.620;2023-04-16T00:58:55;14.20;;;6.85;;
46723;SDS011;32463;48.298;11.620;2023-04-16T01:01:22;11.35;;;6.65;;
46723;SDS011;32463;48.298;11.620;2023-04-16T01:03:48;11.13;;;6.70;;
46723;SDS011;32463;48.298;11.620;2023-04-16T01:06:18;8.43;;;6.03;;
46723;SDS011;32463;48.298;11.620;2023-04-16T01:08:45;13.13;;;6.90;;
46723;SDS011;32463;48.298;11.620;2023-04-16T01:11:13;11.68;;;6.72;;
46723;SDS011;32463;48.298;11.620;2023-04-16T01:13:40;10.25;;;6.97;;
46723;SDS011;32463;48.298;11.620;2023-04-16T01:16:07;12.35;;;7.32;;
46723;SDS011;32463;48.298;11.620;2023-04-16T01:18:35;9.95;;;6.47;;
46723;SDS011;32463;48.298;11.620;2023-04-16T01:21:02;11.60;;;7.10;;
46723;SDS011;32463;48.298;11.620;2023-04-16T01:23:30;10.25;;;6.90;;
46723;SDS011;32463;48.298;11.620;2023-04-16T01:25:57;12.30;;;7.47;;
46723;SDS011;32463;48.298;11.620;2023-04-16T01:28:23;10.63;;;7.10;;
46723;SDS011;32463;48.298;11.620;2023-04-16T01:30:51;13.00;;;7.65;;
46723;SDS011;32463;48.298;11.620;2023-04-16T01:33:17;10.70;;;7.50;;
46723;SDS011;32463;48.298;11.620;2023-04-16T01:35:44;12.55;;;8.02;;
46723;SDS011;32463;48.298;11.620;2023-04-16T01:38:10;11.57;;;8.00;;
46723;SDS011;32463;48.298;11.620;2023-04-16T01:40:37;13.35;;;8.18;;
46723;SDS011;32463;48.298;11.620;2023-04-16T01:43:03;12.52;;;7.88;;
46723;SDS011;32463;48.298;11.620;2023-04-16T01:45:31;15.20;;;8.63;;
46723;SDS011;32463;48.298;11.620;2023-04-16T01:47:58;13.23;;;7.95;;
46723;SDS011;32463;48.298;11.620;2023-04-16T01:50:24;13.80;;;8.57;;
46723;SDS011;32463;48.298;11.620;2023-04-16T01:52:51;12.32;;;8.38;;
46723;SDS011;32463;48.298;11.620;2023-04-16T01:55:18;11.77;;;8.52;;
46723;SDS011;32463;48.298;11.620;2023-04-16T01:57:44;11.77;;;8.80;;
46723;SDS011;32463;48.298;11.620;2023-04-16T02:00:11;13.45;;;9.18;;
46723;SDS011;32463;48.298;11.620;2023-04-16T02:02:37;13.52;;;9.02;;
46723;SDS011;32463;48.298;11.620;2023-04-16T02:05:04;11.57;;;8.15;;
46723;SDS011;32463;48.298;11.620;2023-04-16T02:07:31;11.75;;;8.50;;
46723;SDS011;32463;48.298;11.620;2023-04-16T02:09:57;14.25;;;8.15;;
46723;SDS011;32463;48.298;11.620;2023-04-16T02:12:24;12.77;;;8.73;;
46723;SDS011;32463;48.298;11.620;2023-04-16T02:14:52;13.93;;;8.88;;
46723;SDS011;32463;48.298;11.620;2023-04-16T02:17:18;13.32;;;8.55;;
46723;SDS011;32463;48.298;11.620;2023-04-16T02:19:44;11.77;;;8.40;;
46723;SDS011;32463;48.298;11.620;2023-04-16T02:22:11;13.15;;;8.60;;
46723;SDS011;32463;48.298;11.620;2023-04-16T02:24:37;11.82;;;8.52;;
46723;SDS011;32463;48.298;11.620;2023-04-16T02:27:04;12.95;;;8.68;;
46723;SDS011;32463;48.298;11.620;2023-04-16T02:29:31;14.43;;;8.80;;
46723;SDS011;32463;48.298;11.620;2023-04-16T02:31:57;12.38;;;8.25;;
46723;SDS011;32463;48.298;11.620;2023-04-16T02:34:24;12.65;;;8.30;;
46723;SDS011;32463;48.298;11.620;2023-04-16T02:36:50;12.60;;;8.65;;
46723;SDS011;32463;48.298;11.620;2023-04-16T02:39:18;12.75;;;8.55;;
46723;SDS011;32463;48.298;11.620;2023-04-16T02:41:44;13.00;;;8.43;;
46723;SDS011;32463;48.298;11.620;2023-04-16T02:44:11;13.13;;;8.00;;
46723;SDS011;32463;48.298;11.620;2023-04-16T02:46:37;12.15;;;8.35;;
46723;SDS011;32463;48.298;11.620;2023-04-16T02:49:04;11.60;;;7.68;;
46723;SDS011;32463;48.298;11.620;2023-04-16T02:51:30;12.25;;;7.68;;
46723;SDS011;32463;48.298;11.620;2023-04-16T02:53:57;12.18;;;7.85;;
46723;SDS011;32463;48.298;11.620;2023-04-16T02:56:23;11.68;;;7.90;;
46723;SDS011;32463;48.298;11.620;2023-04-16T02:58:50;10.82;;;7.28;;
46723;SDS011;32463;48.298;11.620;2023-04-16T03:01:16;10.82;;;7.28;;
46723;SDS011;32463;48.298;11.620;2023-04-16T03:03:43;8.27;;;5.88;;
46723;SDS011;32463;48.298;11.620;2023-04-16T03:06:09;10.70;;;6.22;;
46723;SDS011;32463;48.298;11.620;2023-04-16T03:08:36;9.23;;;6.10;;
46723;SDS011;32463;48.298;11.620;2023-04-16T03:11:03;7.70;;;5.82;;
46723;SDS011;32463;48.298;11.620;2023-04-16T03:13:29;8.30;;;5.88;;
46723;SDS011;32463;48.298;11.620;2023-04-16T03:15:56;7.95;;;5.32;;
46723;SDS011;32463;48.298;11.620;2023-04-16T03:18:22;9.38;;;5.60;;
46723;SDS011;32463;48.298;11.620;2023-04-16T03:20:52;8.10;;;5.60;;
46723;SDS011;32463;48.298;11.620;2023-04-16T03:23:19;8.38;;;5.80;;
46723;SDS011;32463;48.298;11.620;2023-04-16T03:25:45;7.85;;;5.32;;
46723;SDS011;32463;48.298;11.620;2023-04-16T03:28:12;7.55;;;5.45;;
46723;SDS011;32463;48.298;11.620;2023-04-16T03:30:38;8.18;;;5.50;;
46723;SDS011;32463;48.298;11.620;2023-04-16T03:33:05;9.75;;;5.90;;
46723;SDS011;32463;48.298;11.620;2023-04-16T03:35:31;8.45;;;5.75;;
46723;SDS011;32463;48.298;11.620;2023-04-16T03:37:58;8.27;;;5.72;;
46723;SDS011;32463;48.298;11.620;2023-04-16T03:40:25;7.90;;;5.60;;
46723;SDS011;32463;48.298;11.620;2023-04-16T03:42:51;8.40;;;5.65;;
46723;SDS011;32463;48.298;11.620;2023-04-16T03:45:18;9.73;;;6.38;;
46723;SDS011;32463;48.298;11.620;2023-04-16T03:47:45;8.43;;;6.00;;
46723;SDS011;32463;48.298;11.620;2023-04-16T03:50:16;8.73;;;5.82;;
46723;SDS011;32463;48.298;11.620;2023-04-16T03:52:43;9.82;;;6.25;;
46723;SDS011;32463;48.298;11.620;2023-04-16T03:55:10;11.70;;;7.28;;
46723;SDS011;32463;48.298;11.620;2023-04-16T03:57:37;9.93;;;6.97;;
46723;SDS011;32463;48.298;11.620;2023-04-16T04:00:04;12.18;;;7.28;;
46723;SDS011;32463;48.298;11.620;2023-04-16T04:02:31;10.70;;;7.07;;
46723;SDS011;32463;48.298;11.620;2023-04-16T04:04:57;10.48;;;7.20;;
46723;SDS011;32463;48.298;11.620;2023-04-16T04:07:24;10.70;;;7.10;;
46723;SDS011;32463;48.298;11.620;2023-04-16T04:09:50;11.35;;;7.82;;
46723;SDS011;32463;48.298;11.620;2023-04-16T04:12:17;10.70;;;7.38;;
46723;SDS011;32463;48.298;11.620;2023-04-16T04:14:43;12.00;;;7.55;;
46723;SDS011;32463;48.298;11.620;2023-04-16T04:17:10;11.35;;;7.93;;
46723;SDS011;32463;48.298;11.620;2023-04-16T04:19:36;13.27;;;8.02;;
46723;SDS011;32463;48.298;11.620;2023-04-16T04:22:02;13.55;;;8.48;;
46723;SDS011;32463;48.298;11.620;2023-04-16T04:24:29;13.57;;;8.68;;
46723;SDS011;32463;48.298;11.620;2023-04-16T04:26:55;12.98;;;8.82;;
46723;SDS011;32463;48.298;11.620;2023-04-16T04:29:22;13.75;;;9.25;;
46723;SDS011;32463;48.298;11.620;2023-04-16T04:31:49;12.98;;;8.57;;
46723;SDS011;32463;48.298;11.620;2023-04-16T04:34:15;11.13;;;7.70;;
46723;SDS011;32463;48.298;11.620;2023-04-16T04:36:41;14.02;;;9.30;;
46723;SDS011;32463;48.298;11.620;2023-04-16T04:39:08;14.30;;;8.23;;
46723;SDS011;32463;48.298;11.620;2023-04-16T04:41:34;12.95;;;8.32;;
46723;SDS011;32463;48.298;11.620;2023-04-16T04:44:01;11.68;;;8.07;;
46723;SDS011;32463;48.298;11.620;2023-04-16T04:46:27;12.10;;;7.97;;
46723;SDS011;32463;48.298;11.620;2023-04-16T04:48:54;12.43;;;8.35;;
46723;SDS011;32463;48.298;11.620;2023-04-16T04:51:20;13.98;;;9.27;;
46723;SDS011;32463;48.298;11.620;2023-04-16T04:53:46;12.82;;;8.38;;
46723;SDS011;32463;48.298;11.620;2023-04-16T04:56:13;12.65;;;8.35;;
46723;SDS011;32463;48.298;11.620;2023-04-16T04:58:40;14.73;;;9.57;;
46723;SDS011;32463;48.298;11.620;2023-04-16T05:01:06;12.70;;;8.20;;
46723;SDS011;32463;48.298;11.620;2023-04-16T05:03:33;12.95;;;8.88;;
46723;SDS011;32463;48.298;11.620;2023-04-16T05:06:00;12.35;;;8.02;;
46723;SDS011;32463;48.298;11.620;2023-04-16T05:08:26;14.38;;;9.38;;
46723;SDS011;32463;48.298;11.620;2023-04-16T05:10:52;14.65;;;9.45;;
46723;SDS011;32463;48.298;11.620;2023-04-16T05:13:19;13.30;;;8.52;;
46723;SDS011;32463;48.298;11.620;2023-04-16T05:15:45;14.13;;;8.75;;
46723;SDS011;32463;48.298;11.620;2023-04-16T05:18:12;12.38;;;8.27;;
46723;SDS011;32463;48.298;11.620;2023-04-16T05:20:38;13.25;;;8.75;;
46723;SDS011;32463;48.298;11.620;2023-04-16T05:23:05;13.15;;;8.18;;
46723;SDS011;32463;48.298;11.620;2023-04-16T05:25:31;12.57;;;8.27;;
46723;SDS011;32463;48.298;11.620;2023-04-16T05:27:58;13.93;;;8.90;;
46723;SDS011;32463;48.298;11.620;2023-04-16T05:30:24;12.02;;;8.00;;
46723;SDS011;32463;48.298;11.620;2023-04-16T05:32:51;13.60;;;8.23;;
46723;SDS011;32463;48.298;11.620;2023-04-16T05:35:17;12.32;;;8.27;;
46723;SDS011;32463;48.298;11.620;2023-04-16T05:37:44;11.73;;;8.10;;
46723;SDS011;32463;48.298;11.620;2023-04-16T05:40:11;11.52;;;7.78;;
46723;SDS011;32463;48.298;11.620;2023-04-16T05:42:39;10.95;;;7.57;;
46723;SDS011;32463;48.298;11.620;2023-04-16T05:45:05;11.25;;;7.40;;
46723;SDS011;32463;48.298;11.620;2023-04-16T05:47:32;11.82;;;7.50;;
46723;SDS011;32463;48.298;11.620;2023-04-16T05:49:58;10.27;;;7.20;;
46723;SDS011;32463;48.298;11.620;2023-04-16T05:52:25;28.90;;;16.10;;
46723;SDS011;32463;48.298;11.620;2023-04-16T05:54:51;10.07;;;7.03;;
46723;SDS011;32463;48.298;11.620;2023-04-16T05:57:18;8.82;;;6.60;;
46723;SDS011;32463;48.298;11.620;2023-04-16T05:59:44;12.00;;;6.60;;
46723;SDS011;32463;48.298;11.620;2023-04-16T06:02:10;10.77;;;7.05;;
46723;SDS011;32463;48.298;11.620;2023-04-16T06:04:37;9.93;;;6.80;;
46723;SDS011;32463;48.298;11.620;2023-04-16T06:07:03;9.77;;;6.55;;
46723;SDS011;32463;48.298;11.620;2023-04-16T06:09:30;9.65;;;6.70;;
46723;SDS011;32463;48.298;11.620;2023-04-16T06:11:56;9.65;;;6.15;;
46723;SDS011;32463;48.298;11.620;2023-04-16T06:14:23;8.40;;;5.75;;
46723;SDS011;32463;48.298;11.620;2023-04-16T06:16:49;8.63;;;6.20;;
46723;SDS011;32463;48.298;11.620;2023-04-16T06:19:16;11.32;;;6.60;;
46723;SDS011;32463;48.298;11.620;2023-04-16T06:21:42;8.30;;;6.22;;
46723;SDS011;32463;48.298;11.620;2023-04-16T06:24:09;8.93;;;5.95;;
46723;SDS011;32463;48.298;11.620;2023-04-16T06:26:37;8.15;;;5.80;;
46723;SDS011;32463;48.298;11.620;2023-04-16T06:29:03;9.07;;;5.95;;
46723;SDS011;32463;48.298;11.620;2023-04-16T06:31:30;8.10;;;5.65;;
46723;SDS011;32463;48.298;11.620;2023-04-16T06:33:57;8.05;;;5.85;;
46723;SDS011;32463;48.298;11.620;2023-04-16T06:36:23;7.60;;;5.32;;
46723;SDS011;32463;48.298;11.620;2023-04-16T06:38:51;7.57;;;5.28;;
46723;SDS011;32463;48.298;11.620;2023-04-16T06:41:18;7.03;;;5.13;;
46723;SDS011;32463;48.298;11.620;2023-04-16T06:43:44;6.97;;;5.15;;
46723;SDS011;32463;48.298;11.620;2023-04-16T06:46:11;7.22;;;4.93;;
46723;SDS011;32463;48.298;11.620;2023-04-16T06:48:38;6.75;;;4.70;;
46723;SDS011;32463;48.298;11.620;2023-04-16T06:51:04;6.22;;;4.28;;
46723;SDS011;32463;48.298;11.620;2023-04-16T06:53:31;5.60;;;4.00;;
46723;SDS011;32463;48.298;11.620;2023-04-16T06:55:57;7.05;;;4.80;;
46723;SDS011;32463;48.298;11.620;2023-04-16T06:58:24;5.25;;;4.07;;
46723;SDS011;32463;48.298;11.620;2023-04-16T07:00:51;6.35;;;3.90;;
46723;SDS011;32463;48.298;11.620;2023-04-16T07:03:17;4.30;;;3.13;;
46723;SDS011;32463;48.298;11.620;2023-04-16T07:05:44;5.20;;;3.35;;
46723;SDS011;32463;48.298;11.620;2023-04-16T07:08:10;4.55;;;3.28;;
46723;SDS011;32463;48.298;11.620;2023-04-16T07:10:37;4.43;;;3.30;;
46723;SDS011;32463;48.298;11.620;2023-04-16T07:13:03;4.53;;;3.03;;
46723;SDS011;32463;48.298;11.620;2023-04-16T07:15:30;3.38;;;2.47;;
46723;SDS011;32463;48.298;11.620;2023-04-16T07:17:56;3.75;;;2.88;;
46723;SDS011;32463;48.298;11.620;2023-04-16T07:20:23;3.47;;;2.65;;
46723;SDS011;32463;48.298;11.620;2023-04-16T07:22:50;3.58;;;2.60;;
46723;SDS011;32463;48.298;11.620;2023-04-16T07:25:16;3.60;;;2.80;;
46723;SDS011;32463;48.298;11.620;2023-04-16T07:27:43;3.17;;;2.30;;
46723;SDS011;32463;48.298;11.620;2023-04-16T07:30:09;3.05;;;2.13;;
46723;SDS011;32463;48.298;11.620;2023-04-16T07:32:36;3.28;;;2.42;;
46723;SDS011;32463;48.298;11.620;2023-04-16T07:35:02;3.28;;;2.00;;
46723;SDS011;32463;48.298;11.620;2023-04-16T07:37:29;2.78;;;1.98;;
46723;SDS011;32463;48.298;11.620;2023-04-16T07:39:55;2.65;;;1.80;;
46723;SDS011;32463;48.298;11.620;2023-04-16T07:42:22;1.95;;;1.40;;
46723;SDS011;32463;48.298;11.620;2023-04-16T07:44:49;1.88;;;1.30;;
46723;SDS011;32463;48.298;11.620;2023-04-16T07:47:15;5.45;;;2.30;;
46723;SDS011;32463;48.298;11.620;2023-04-16T07:49:41;6.07;;;2.03;;
46723;SDS011;32463;48.298;11.620;2023-04-16T07:52:08;1.83;;;1.30;;
46723;SDS011;32463;48.298;11.620;2023-04-16T07:54:34;1.83;;;1.20;;
46723;SDS011;32463;48.298;11.620;2023-04-16T07:57:01;2.20;;;1.27;;
46723;SDS011;32463;48.298;11.620;2023-04-16T07:59:27;1.48;;;1.20;;
46723;SDS011;32463;48.298;11.620;2023-04-16T08:01:54;1.10;;;0.93;;
46723;SDS011;32463;48.298;11.620;2023-04-16T08:04:20;1.40;;;0.90;;
46723;SDS011;32463;48.298;11.620;2023-04-16T08:06:49;0.98;;;0.90;;
46723;SDS011;32463;48.298;11.620;2023-04-16T08:09:17;2.15;;;1.00;;
46723;SDS011;32463;48.298;11.620;2023-04-16T08:11:45;1.10;;;0.90;;
46723;SDS011;32463;48.298;11.620;2023-04-16T08:14:13;1.35;;;1.02;;
46723;SDS011;32463;48.298;11.620;2023-04-16T08:16:40;1.25;;;0.90;;
46723;SDS011;32463;48.298;11.620;2023-04-16T08:19:06;1.58;;;1.10;;
46723;SDS011;32463;48.298;11.620;2023-04-16T08:21:32;1.08;;;0.90;;
46723;SDS011;32463;48.298;11.620;2023-04-16T08:23:59;2.15;;;0.90;;
46723;SDS011;32463;48.298;11.620;2023-04-16T08:26:25;1.00;;;0.73;;
46723;SDS011;32463;48.298;11.620;2023-04-16T08:28:52;0.80;;;0.80;;
46723;SDS011;32463;48.298;11.620;2023-04-16T08:31:18;1.25;;;0.88;;
46723;SDS011;32463;48.298;11.620;2023-04-16T08:33:45;1.10;;;0.90;;
46723;SDS011;32463;48.298;11.620;2023-04-16T08:36:11;1.38;;;0.90;;
46723;SDS011;32463;48.298;11.620;2023-04-16T08:38:38;0.82;;;0.70;;
46723;SDS011;32463;48.298;11.620;2023-04-16T08:41:05;3.92;;;1.00;;
46723;SDS011;32463;48.298;11.620;2023-04-16T08:43:35;1.58;;;0.95;;
46723;SDS011;32463;48.298;11.620;2023-04-16T08:46:06;2.08;;;0.80;;
46723;SDS011;32463;48.298;11.620;2023-04-16T08:48:34;0.93;;;0.77;;
46723;SDS011;32463;48.298;11.620;2023-04-16T08:51:03;0.60;;;0.60;;
46723;SDS011;32463;48.298;11.620;2023-04-16T08:53:41;0.80;;;0.70;;
46723;SDS011;32463;48.298;11.620;2023-04-16T08:56:13;2.50;;;0.90;;
46723;SDS011;32463;48.298;11.620;2023-04-16T08:58:44;1.95;;;1.13;;
46723;SDS011;32463;48.298;11.620;2023-04-16T09:01:13;0.93;;;0.73;;
46723;SDS011;32463;48.298;11.620;2023-04-16T09:03:43;0.55;;;0.55;;
46723;SDS011;32463;48.298;11.620;2023-04-16T09:06:12;1.00;;;0.52;;
46723;SDS011;32463;48.298;11.620;2023-04-16T09:08:39;1.63;;;0.60;;
46723;SDS011;32463;48.298;11.620;2023-04-16T09:11:06;0.85;;;0.60;;
46723;SDS011;32463;48.298;11.620;2023-04-16T09:13:32;1.20;;;0.75;;
46723;SDS011;32463;48.298;11.620;2023-04-16T09:15:59;0.47;;;0.47;;
46723;SDS011;32463;48.298;11.620;2023-04-16T09:18:26;0.55;;;0.55;;
46723;SDS011;32463;48.298;11.620;2023-04-16T09:20:53;0.47;;;0.40;;
46723;SDS011;32463;48.298;11.620;2023-04-16T09:23:20;0.30;;;0.30;;
46723;SDS011;32463;48.298;11.620;2023-04-16T09:25:46;1.95;;;1.10;;
46723;SDS011;32463;48.298;11.620;2023-04-16T09:28:37;1.25;;;0.90;;
46723;SDS011;32463;48.298;11.620;2023-04-16T09:31:12;4.10;;;2.65;;
46723;SDS011;32463;48.298;11.620;2023-04-16T09:33:41;1.70;;;0.77;;
46723;SDS011;32463;48.298;11.620;2023-04-16T09:36:08;0.60;;;0.50;;
46723;SDS011;32463;48.298;11.620;2023-04-16T09:38:48;0.88;;;0.50;;
46723;SDS011;32463;48.298;11.620;2023-04-16T09:41:16;0.40;;;0.40;;
46723;SDS011;32463;48.298;11.620;2023-04-16T09:46:29;1.90;;;0.50;;
46723;SDS011;32463;48.298;11.620;2023-04-16T09:48:56;0.30;;;0.30;;
46723;SDS011;32463;48.298;11.620;2023-04-16T09:51:23;0.80;;;0.50;;
46723;SDS011;32463;48.298;11.620;2023-04-16T09:53:51;0.50;;;0.40;;
46723;SDS011;32463;48.298;11.620;2023-04-16T09:56:18;4.03;;;1.73;;
46723;SDS011;32463;48.298;11.620;2023-04-16T09:58:48;3.30;;;1.70;;
46723;SDS011;32463;48.298;11.620;2023-04-16T10:01:16;0.45;;;0.43;;
46723;SDS011;32463;48.298;11.620;2023-04-16T10:03:43;1.50;;;0.60;;
46723;SDS011;32463;48.298;11.620;2023-04-16T10:06:18;0.60;;;0.50;;
46723;SDS011;32463;48.298;11.620;2023-04-16T10:08:49;1.00;;;0.70;;
46723;SDS011;32463;48.298;11.620;2023-04-16T10:11:21;1.75;;;1.00;;
46723;SDS011;32463;48.298;11.620;2023-04-16T10:13:48;0.63;;;0.43;;
46723;SDS011;32463;48.298;11.620;2023-04-16T10:16:14;1.05;;;0.80;;
46723;SDS011;32463;48.298;11.620;2023-04-16T10:18:42;0.77;;;0.50;;
46723;SDS011;32463;48.298;11.620;2023-04-16T10:21:10;0.80;;;0.50;;
46723;SDS011;32463;48.298;11.620;2023-04-16T10:23:38;0.40;;;0.40;;
46723;SDS011;32463;48.298;11.620;2023-04-16T10:26:05;1.08;;;0.65;;
46723;SDS011;32463;48.298;11.620;2023-04-16T10:28:32;0.57;;;0.52;;
46723;SDS011;32463;48.298;11.620;2023-04-16T10:31:00;0.60;;;0.60;;
46723;SDS011;32463;48.298;11.620;2023-04-16T10:33:30;0.57;;;0.40;;
46723;SDS011;32463;48.298;11.620;2023-04-16T10:36:11;0.93;;;0.50;;
46723;SDS011;32463;48.298;11.620;2023-04-16T10:38:46;0.30;;;0.30;;
46723;SDS011;32463;48.298;11.620;2023-04-16T10:41:15;0.50;;;0.50;;
46723;SDS011;32463;48.298;11.620;2023-04-16T10:43:42;1.88;;;1.38;;
46723;SDS011;32463;48.298;11.620;2023-04-16T10:51:29;0.70;;;0.70;;
46723;SDS011;32463;48.298;11.620;2023-04-16T10:59:00;0.60;;;0.50;;
46723;SDS011;32463;48.298;11.620;2023-04-16T11:09:58;0.98;;;0.60;;
46723;SDS011;32463;48.298;11.620;2023-04-16T11:15:06;0.60;;;0.50;;
46723;SDS011;32463;48.298;11.620;2023-04-16T11:17:36;0.60;;;0.50;;
46723;SDS011;32463;48.298;11.620;2023-04-16T11:20:22;0.45;;;0.40;;
46723;SDS011;32463;48.298;11.620;2023-04-16T11:22:51;0.88;;;0.50;;
46723;SDS011;32463;48.298;11.620;2023-04-16T11:25:19;0.50;;;0.50;;
46723;SDS011;32463;48.298;11.620;2023-04-16T11:27:46;0.82;;;0.65;;
46723;SDS011;32463;48.298;11.620;2023-04-16T11:30:13;0.50;;;0.50;;
46723;SDS011;32463;48.298;11.620;2023-04-16T11:32:40;2.00;;;1.20;;
46723;SDS011;32463;48.298;11.620;2023-04-16T11:35:14;1.02;;;0.70;;
46723;SDS011;32463;48.298;11.620;2023-04-16T11:37:42;1.08;;;0.77;;
46723;SDS011;32463;48.298;11.620;2023-04-16T11:40:10;1.40;;;0.82;;
46723;SDS011;32463;48.298;11.620;2023-04-16T11:42:37;1.45;;;0.70;;
46723;SDS011;32463;48.298;11.620;2023-04-16T11:45:05;0.77;;;0.63;;
46723;SDS011;32463;48.298;11.620;2023-04-16T11:47:46;0.70;;;0.63;;
46723;SDS011;32463;48.298;11.620;2023-04-16T11:50:20;0.90;;;0.60;;
46723;SDS011;32463;48.298;11.620;2023-04-16T11:52:49;0.80;;;0.60;;
46723;SDS011;32463;48.298;11.620;2023-04-16T11:55:17;0.80;;;0.50;;
46723;SDS011;32463;48.298;11.620;2023-04-16T11:57:44;0.90;;;0.60;;
46723;SDS011;32463;48.298;11.620;2023-04-16T12:00:12;0.55;;;0.55;;
46723;SDS011;32463;48.298;11.620;2023-04-16T12:02:42;0.70;;;0.50;;
46723;SDS011;32463;48.298;11.620;2023-04-16T12:08:06;0.85;;;0.70;;
46723;SDS011;32463;48.298;11.620;2023-04-16T12:10:35;0.70;;;0.70;;
46723;SDS011;32463;48.298;11.620;2023-04-16T12:13:09;0.50;;;0.50;;
46723;SDS011;32463;48.298;11.620;2023-04-16T12:15:46;1.35;;;0.68;;
46723;SDS011;32463;48.298;11.620;2023-04-16T12:18:23;0.60;;;0.50;;
46723;SDS011;32463;48.298;11.620;2023-04-16T12:20:51;0.50;;;0.50;;
46723;SDS011;32463;48.298;11.620;2023-04-16T12:23:21;0.80;;;0.70;;
46723;SDS011;32463;48.298;11.620;2023-04-16T12:25:54;1.23;;;0.68;;
46723;SDS011;32463;48.298;11.620;2023-04-16T12:28:30;1.75;;;0.80;;
46723;SDS011;32463;48.298;11.620;2023-04-16T12:31:02;1.88;;;1.20;;
46723;SDS011;32463;48.298;11.620;2023-04-16T12:33:30;1.73;;;1.17;;
46723;SDS011;32463;48.298;11.620;2023-04-16T12:35:57;0.90;;;0.70;;
46723;SDS011;32463;48.298;11.620;2023-04-16T12:38:23;0.82;;;0.60;;
46723;SDS011;32463;48.298;11.620;2023-04-16T12:40:50;0.63;;;0.60;;
46723;SDS011;32463;48.298;11.620;2023-04-16T12:43:20;0.93;;;0.70;;
46723;SDS011;32463;48.298;11.620;2023-04-16T12:45:47;0.98;;;0.77;;
46723;SDS011;32463;48.298;11.620;2023-04-16T12:48:14;1.15;;;0.93;;
46723;SDS011;32463;48.298;11.620;2023-04-16T12:50:40;0.70;;;0.70;;
46723;SDS011;32463;48.298;11.620;2023-04-16T12:53:08;0.65;;;0.63;;
46723;SDS011;32463;48.298;11.620;2023-04-16T12:55:34;0.93;;;0.60;;
46723;SDS011;32463;48.298;11.620;2023-04-16T12:58:01;1.13;;;0.90;;
46723;SDS011;32463;48.298;11.620;2023-04-16T13:00:27;1.23;;;0.70;;
46723;SDS011;32463;48.298;11.620;2023-04-16T13:02:56;3.08;;;1.50;;
46723;SDS011;32463;48.298;11.620;2023-04-16T13:05:23;3.30;;;1.77;;
46723;SDS011;32463;48.298;11.620;2023-04-16T13:07:49;1.15;;;0.85;;
46723;SDS011;32463;48.298;11.620;2023-04-16T13:10:17;1.15;;;0.60;;
46723;SDS011;32463;48.298;11.620;2023-04-16T13:12:43;1.15;;;0.93;;
46723;SDS011;32463;48.298;11.620;2023-04-16T13:15:10;1.02;;;0.80;;
46723;SDS011;32463;48.298;11.620;2023-04-16T13:17:37;0.73;;;0.70;;
46723;SDS011;32463;48.298;11.620;2023-04-16T13:20:03;1.63;;;1.00;;
46723;SDS011;32463;48.298;11.620;2023-04-16T13:22:30;1.35;;;0.88;;
46723;SDS011;32463;48.298;11.620;2023-04-16T13:24:56;3.05;;;1.25;;
46723;SDS011;32463;48.298;11.620;2023-04-16T13:27:23;1.17;;;0.90;;
46723;SDS011;32463;48.298;11.620;2023-04-16T13:29:50;1.88;;;1.20;;
46723;SDS011;32463;48.298;11.620;2023-04-16T13:32:17;1.35;;;0.90;;
46723;SDS011;32463;48.298;11.620;2023-04-16T13:34:43;1.75;;;1.20;;
46723;SDS011;32463;48.298;11.620;2023-04-16T13:37:12;7.20;;;4.65;;
46723;SDS011;32463;48.298;11.620;2023-04-16T13:39:39;1.00;;;0.75;;
46723;SDS011;32463;48.298;11.620;2023-04-16T13:42:06;1.23;;;1.10;;
46723;SDS011;32463;48.298;11.620;2023-04-16T13:44:32;1.08;;;0.90;;
46723;SDS011;32463;48.298;11.620;2023-04-16T13:46:58;1.13;;;1.00;;
46723;SDS011;32463;48.298;11.620;2023-04-16T13:49:25;1.40;;;1.00;;
46723;SDS011;32463;48.298;11.620;2023-04-16T13:51:52;1.42;;;0.90;;
46723;SDS011;32463;48.298;11.620;2023-04-16T13:54:18;4.32;;;0.95;;
46723;SDS011;32463;48.298;11.620;2023-04-16T13:56:45;0.80;;;0.80;;
46723;SDS011;32463;48.298;11.620;2023-04-16T13:59:12;2.38;;;0.80;;
46723;SDS011;32463;48.298;11.620;2023-04-16T14:01:39;0.80;;;0.80;;
46723;SDS011;32463;48.298;11.620;2023-04-16T14:04:06;0.80;;;0.70;;
46723;SDS011;32463;48.298;11.620;2023-04-16T14:06:33;1.58;;;0.85;;
46723;SDS011;32463;48.298;11.620;2023-04-16T14:09:00;1.17;;;0.80;;
46723;SDS011;32463;48.298;11.620;2023-04-16T14:11:27;1.73;;;0.80;;
46723;SDS011;32463;48.298;11.620;2023-04-16T14:13:54;0.70;;;0.70;;
46723;SDS011;32463;48.298;11.620;2023-04-16T14:16:22;1.08;;;0.77;;
46723;SDS011;32463;48.298;11.620;2023-04-16T14:18:49;1.30;;;0.90;;
46723;SDS011;32463;48.298;11.620;2023-04-16T14:21:16;1.92;;;0.63;;
46723;SDS011;32463;48.298;11.620;2023-04-16T14:23:43;1.17;;;0.80;;
46723;SDS011;32463;48.298;11.620;2023-04-16T14:26:10;3.03;;;0.80;;
46723;SDS011;32463;48.298;11.620;2023-04-16T14:28:36;0.85;;;0.70;;
46723;SDS011;32463;48.298;11.620;2023-04-16T14:31:05;1.10;;;0.80;;
46723;SDS011;32463;48.298;11.620;2023-04-16T14:33:31;1.70;;;0.90;;
46723;SDS011;32463;48.298;11.620;2023-04-16T14:35:58;0.90;;;0.80;;
46723;SDS011;32463;48.298;11.620;2023-04-16T14:38:25;1.60;;;0.80;;
46723;SDS011;32463;48.298;11.620;2023-04-16T14:40:52;1.17;;;0.70;;
46723;SDS011;32463;48.298;11.620;2023-04-16T14:43:21;1.10;;;0.80;;
46723;SDS011;32463;48.298;11.620;2023-04-16T14:45:47;0.85;;;0.80;;
46723;SDS011;32463;48.298;11.620;2023-04-16T14:48:15;0.98;;;0.88;;
46723;SDS011;32463;48.298;11.620;2023-04-16T14:50:42;12.25;;;6.72;;
46723;SDS011;32463;48.298;11.620;2023-04-16T14:53:09;2.03;;;1.13;;
46723;SDS011;32463;48.298;11.620;2023-04-16T14:55:37;1.27;;;0.90;;
46723;SDS011;32463;48.298;11.620;2023-04-16T14:58:03;7.95;;;2.50;;